North Hoosick, New York
Current Conditions -  °F | °C
As of 8:54 AM on Monday 24 Nov 2014 (Local Time) from KDDH Reporting Station
Light Rain Light Rain  
Wind Chill: 60°   Ceiling: 2900
Heat Index: 60°   Visibility: 6mi
Dew Point: 55°   Wind: 12mph
Humidity: 83%   Direction: 160°SSE
Pressure: 29.62"   Gusts: 23mph
Location:  42.93°N, 73.34°W
Report Text: KDDH 241354Z AUTO 16010G20KT 6SM -RA FEW021 BKN029 OVC036 16/13 A2962 RMK AO2 PK WND 13029/1259 RAE25B45 SLP029 P0000 T01560128
Loading
Personal Weather Stations






























Interactive Weather Map New forecast layout! Learn more

10-Day Weather Forecast

Advertisements
Track Severe Weather on mobile